createdAt,value
2022-11-24T00:02:46.635Z,70.99
2022-11-24T00:07:49.491Z,71.66
2022-11-24T00:12:52.302Z,71.38
2022-11-24T00:17:55.000Z,70.49
2022-11-24T00:22:57.835Z,70.94
2022-11-24T00:28:00.595Z,71.19
2022-11-24T00:33:03.335Z,70.35
2022-11-24T00:38:06.115Z,70.35
2022-11-24T00:43:08.879Z,70.58
2022-11-24T00:48:11.657Z,70.67
2022-11-24T00:53:14.436Z,70.16
2022-11-24T00:58:17.170Z,70.41
2022-11-24T01:03:21.435Z,70.26
2022-11-24T01:08:24.125Z,69.76
2022-11-24T01:13:26.842Z,69.25
2022-11-24T01:18:29.650Z,69.57
2022-11-24T01:23:32.694Z,69.16
2022-11-24T01:28:35.946Z,68.90
2022-11-24T01:33:39.288Z,69.14
2022-11-24T01:38:42.124Z,69.10
2022-11-24T01:43:45.494Z,69.17
2022-11-24T01:49:43.920Z,68.33
2022-11-24T01:54:52.476Z,69.10
2022-11-24T02:00:07.634Z,68.58
2022-11-24T02:05:29.213Z,68.86
2022-11-24T02:10:32.140Z,69.43
2022-11-24T02:15:35.286Z,68.86
2022-11-24T02:20:38.492Z,68.74
2022-11-24T02:26:01.388Z,68.94
2022-11-24T02:31:05.368Z,68.17
2022-11-24T02:36:08.378Z,69.17
2022-11-24T02:41:16.981Z,68.47
2022-11-24T02:46:19.827Z,68.84
2022-11-24T02:51:23.400Z,69.26
2022-11-24T02:56:26.857Z,69.14
2022-11-24T03:01:29.601Z,68.87
2022-11-24T03:06:32.403Z,68.97
2022-11-24T03:11:35.137Z,68.56
2022-11-24T03:16:38.066Z,67.68
2022-11-24T03:21:40.760Z,67.63
2022-11-24T03:26:43.502Z,67.13
2022-11-24T03:31:46.491Z,67.01
2022-11-24T03:36:49.177Z,67.05
2022-11-24T03:41:52.128Z,67.80
2022-11-24T03:46:54.899Z,66.45
2022-11-24T03:51:57.734Z,66.87
2022-11-24T03:57:00.608Z,66.73
2022-11-24T04:02:03.420Z,65.70
2022-11-24T04:07:06.330Z,66.17
2022-11-24T04:12:28.249Z,65.66
2022-11-24T04:17:30.928Z,66.41
2022-11-24T04:22:33.663Z,65.61
2022-11-24T04:27:37.607Z,65.81
2022-11-24T04:32:46.654Z,65.67
2022-11-24T04:37:49.451Z,66.03
2022-11-24T04:42:55.966Z,64.99
2022-11-24T04:47:58.861Z,64.70
2022-11-24T04:53:01.594Z,65.28
2022-11-24T04:58:04.503Z,64.62
2022-11-24T05:03:07.320Z,64.63
2022-11-24T05:08:09.947Z,64.35
2022-11-24T05:13:13.830Z,64.19
2022-11-24T05:18:16.970Z,63.89
2022-11-24T05:23:19.889Z,63.66
2022-11-24T05:28:22.593Z,63.96
2022-11-24T05:33:25.344Z,63.93
2022-11-24T05:38:28.012Z,63.67
2022-11-24T05:43:30.795Z,63.62
2022-11-24T05:48:33.450Z,63.35
2022-11-24T05:53:36.222Z,63.70
2022-11-24T05:58:39.032Z,63.20
2022-11-24T06:03:42.169Z,63.00
2022-11-24T06:08:44.929Z,62.58
2022-11-24T06:13:49.066Z,63.11
2022-11-24T06:18:53.312Z,63.33
2022-11-24T06:23:55.961Z,63.43
2022-11-24T06:28:58.744Z,63.56
2022-11-24T06:34:01.727Z,63.75
2022-11-24T06:39:05.386Z,62.96
2022-11-24T06:44:08.528Z,63.26
2022-11-24T06:49:11.630Z,63.29
2022-11-24T06:54:18.853Z,62.76
2022-11-24T06:59:21.933Z,63.01
2022-11-24T07:04:24.605Z,63.47
2022-11-24T07:09:27.299Z,63.35
2022-11-24T07:14:29.922Z,63.35
2022-11-24T07:19:32.654Z,64.17
2022-11-24T07:24:35.471Z,64.27
2022-11-24T07:29:38.322Z,64.46
2022-11-24T07:34:41.004Z,64.70
2022-11-24T07:39:43.746Z,64.66
2022-11-24T07:44:46.467Z,65.38
2022-11-24T07:49:49.182Z,65.11
2022-11-24T07:54:51.810Z,65.32
2022-11-24T07:59:54.531Z,66.05
2022-11-24T08:04:57.274Z,65.35
2022-11-24T08:09:59.993Z,65.79
2022-11-24T08:15:06.514Z,65.98
2022-11-24T08:20:12.461Z,66.03
2022-11-24T08:25:15.694Z,65.88
2022-11-24T08:30:18.407Z,66.35
2022-11-24T08:35:21.515Z,66.07
2022-11-24T08:40:24.530Z,67.18
2022-11-24T08:45:30.668Z,67.08
2022-11-24T08:50:35.916Z,67.05
2022-11-24T08:55:38.856Z,66.97
2022-11-24T09:00:41.528Z,68.24
2022-11-24T09:05:51.651Z,67.64
2022-11-24T09:11:00.288Z,68.31
2022-11-24T09:16:10.825Z,68.52
2022-11-24T09:21:16.391Z,68.48
2022-11-24T09:26:22.198Z,68.66
2022-11-24T09:31:27.173Z,69.17
2022-11-24T09:36:30.003Z,68.45
2022-11-24T09:41:40.452Z,69.16
2022-11-24T09:47:07.071Z,69.27
2022-11-24T09:52:13.220Z,68.77
2022-11-24T09:57:16.553Z,69.53
2022-11-24T10:02:19.383Z,69.16
2022-11-24T10:07:28.415Z,69.51
2022-11-24T10:12:49.961Z,69.76
2022-11-24T10:18:16.193Z,70.16
2022-11-24T10:23:49.582Z,69.45
2022-11-24T10:28:55.547Z,69.59
2022-11-24T10:34:02.595Z,70.15
2022-11-24T10:39:25.199Z,70.25
2022-11-24T10:44:27.849Z,70.58
2022-11-24T10:49:33.949Z,69.97
2022-11-24T10:54:37.225Z,69.87
2022-11-24T10:59:40.928Z,70.49
2022-11-24T11:04:43.978Z,69.94
2022-11-24T11:09:47.836Z,70.00
2022-11-24T11:14:51.080Z,70.33
2022-11-24T11:20:02.010Z,70.09
2022-11-24T11:25:11.528Z,70.20
2022-11-24T11:35:44.146Z,69.95
2022-11-24T11:40:50.259Z,69.80
2022-11-24T11:46:13.757Z,70.01
2022-11-24T11:52:01.338Z,69.51
2022-11-24T11:57:30.398Z,70.14
2022-11-24T12:02:53.141Z,70.14
2022-11-24T12:08:43.931Z,69.98
2022-11-24T12:14:12.614Z,69.93
2022-11-24T12:19:40.034Z,69.98
2022-11-24T12:24:45.480Z,69.57
2022-11-24T12:30:10.379Z,69.76
2022-11-24T12:35:23.826Z,70.00
2022-11-24T12:40:32.607Z,70.21
2022-11-24T12:45:43.764Z,70.29
2022-11-24T12:50:46.890Z,70.42
2022-11-24T12:55:49.617Z,70.15
2022-11-24T13:01:15.981Z,70.25
2022-11-24T13:06:25.340Z,70.55
2022-11-24T13:11:41.092Z,70.89
2022-11-24T13:17:21.864Z,71.06
2022-11-24T13:22:25.525Z,70.97
2022-11-24T13:27:32.470Z,71.40
2022-11-24T13:32:35.128Z,71.58
2022-11-24T13:37:37.543Z,71.29
2022-11-24T13:42:55.517Z,71.39
2022-11-24T13:47:58.953Z,71.80
2022-11-24T13:53:09.023Z,71.60
2022-11-24T13:58:14.764Z,71.93
2022-11-24T14:04:28.701Z,71.84
2022-11-24T14:09:25.617Z,72.77
2022-11-24T14:14:28.372Z,72.43
2022-11-24T14:19:32.371Z,72.41
2022-11-24T14:24:39.715Z,72.22
2022-11-24T14:30:01.444Z,72.28
2022-11-24T14:35:30.150Z,72.24
2022-11-24T14:40:45.730Z,72.32
2022-11-24T14:45:51.955Z,72.27
2022-11-24T14:51:05.364Z,72.39
2022-11-24T14:56:09.430Z,72.81
2022-11-24T15:01:28.415Z,72.75
2022-11-24T15:06:31.187Z,73.62
2022-11-24T15:11:34.815Z,73.24
2022-11-24T15:16:40.550Z,73.04
2022-11-24T15:21:43.359Z,73.60
2022-11-24T15:26:46.527Z,73.24
2022-11-24T15:31:52.656Z,73.39
2022-11-24T15:36:55.934Z,73.60
2022-11-24T15:41:58.379Z,73.67
2022-11-24T15:47:00.926Z,73.67
2022-11-24T15:52:03.691Z,72.46
2022-11-24T15:57:06.097Z,72.95
2022-11-24T16:02:09.300Z,72.63
2022-11-24T16:07:15.222Z,73.03
2022-11-24T16:12:18.042Z,72.55
2022-11-24T16:17:20.679Z,73.20
2022-11-24T16:22:23.330Z,73.67
2022-11-24T16:27:26.029Z,73.20
2022-11-24T16:32:28.787Z,74.01
2022-11-24T16:37:32.462Z,73.35
2022-11-24T16:42:35.338Z,73.21
2022-11-24T16:47:42.053Z,73.57
2022-11-24T16:52:44.805Z,72.87
2022-11-24T16:57:48.792Z,73.55
2022-11-24T17:02:51.829Z,73.65
2022-11-24T17:07:54.666Z,73.23
2022-11-24T17:12:57.480Z,73.76
2022-11-24T17:18:23.461Z,73.26
2022-11-24T17:23:22.659Z,73.58
2022-11-24T17:28:25.104Z,73.48
2022-11-24T17:33:28.733Z,73.66
2022-11-24T17:38:31.574Z,72.99
2022-11-24T17:43:34.151Z,73.22
2022-11-24T17:48:36.961Z,73.15
2022-11-24T17:53:41.067Z,73.67
2022-11-24T17:58:44.157Z,73.45
2022-11-24T18:03:50.480Z,72.77
2022-11-24T18:08:58.992Z,73.77
2022-11-24T18:14:03.757Z,73.77
2022-11-24T18:19:11.233Z,73.36
2022-11-24T18:24:17.502Z,73.49
2022-11-24T18:29:23.732Z,73.42
2022-11-24T18:34:26.381Z,73.92
2022-11-24T18:39:30.138Z,73.91
2022-11-24T18:44:33.302Z,73.49
2022-11-24T18:49:36.271Z,73.84
2022-11-24T18:54:39.143Z,73.56
2022-11-24T18:59:41.570Z,73.90
2022-11-24T19:04:44.316Z,73.51
2022-11-24T19:09:47.194Z,73.25
2022-11-24T19:14:49.854Z,73.78
2022-11-24T19:19:52.809Z,73.09
2022-11-24T19:24:55.274Z,73.12
2022-11-24T19:29:57.891Z,73.52
2022-11-24T19:35:00.742Z,73.33
2022-11-24T19:40:04.393Z,72.90
2022-11-24T19:45:07.920Z,73.23
2022-11-24T19:50:11.631Z,73.40
2022-11-24T19:55:14.378Z,73.25
2022-11-24T20:00:17.927Z,72.96
2022-11-24T20:05:20.584Z,73.99
2022-11-24T20:10:23.572Z,73.67
2022-11-24T20:15:26.454Z,73.07
2022-11-24T20:20:29.136Z,73.38
2022-11-24T20:25:31.810Z,73.31
2022-11-24T20:30:34.525Z,72.91
2022-11-24T20:35:37.219Z,72.86
2022-11-24T20:40:39.865Z,72.99
2022-11-24T20:45:42.714Z,73.21
2022-11-24T20:50:50.962Z,73.36
2022-11-24T20:56:06.240Z,72.87
2022-11-24T21:01:20.563Z,73.39
2022-11-24T21:06:23.915Z,73.48
2022-11-24T21:11:26.883Z,73.33
2022-11-24T21:16:32.168Z,73.13
2022-11-24T21:21:36.107Z,73.19
2022-11-24T21:26:39.743Z,73.52
2022-11-24T21:31:42.469Z,73.67
2022-11-24T21:36:45.472Z,73.68
2022-11-24T21:41:48.496Z,73.64
2022-11-24T21:46:55.940Z,73.19
2022-11-24T21:51:58.972Z,73.23
2022-11-24T21:57:01.579Z,73.21
2022-11-24T22:02:06.723Z,73.27
2022-11-24T22:07:13.369Z,72.74
2022-11-24T22:12:16.459Z,72.69
2022-11-24T22:17:19.150Z,73.49
2022-11-24T22:22:21.946Z,72.75
2022-11-24T22:27:24.596Z,72.80
2022-11-24T22:32:27.347Z,73.50
2022-11-24T22:37:29.989Z,73.53
2022-11-24T22:42:32.647Z,73.01
2022-11-24T22:47:35.407Z,72.96
2022-11-24T22:52:39.130Z,73.57
2022-11-24T22:57:44.899Z,73.04
2022-11-24T23:02:50.765Z,73.47
2022-11-24T23:07:53.501Z,73.88
2022-11-24T23:12:56.299Z,73.72
2022-11-24T23:17:58.956Z,73.67
2022-11-24T23:23:01.580Z,73.73
2022-11-24T23:28:04.391Z,73.49
2022-11-24T23:33:07.076Z,73.49
2022-11-24T23:38:09.732Z,73.99
2022-11-24T23:43:12.469Z,73.25
2022-11-24T23:48:15.170Z,73.56
2022-11-24T23:53:17.841Z,74.04
2022-11-24T23:58:20.731Z,73.43
